Time;durP1;ratioP1;P1;durP2;ratioP2;P2;SDS_P1;SDS_P2;PMS_P1;PMS_P2;Temp;Humidity;BMP_temperature;BMP_pressure;BME280_temperature;BME280_humidity;BME280_pressure;Samples;Min_cycle;Max_cycle;Signal;HPM_P1;HPM_P2
2022/04/13 00:01:41;;;;;;;10.93;7.67;;;10.50;99.90;;;;;;4955363;28;20238;-69
2022/04/13 00:04:06;;;;;;;10.37;6.93;;;10.40;99.90;;;;;;4955557;28;20553;-69
2022/04/13 00:06:38;;;;;;;12.77;7.27;;;10.40;99.90;;;;;;4955985;28;20210;-69
2022/04/13 00:09:10;;;;;;;10.30;6.90;;;10.40;99.90;;;;;;4954782;28;20676;-70
2022/04/13 00:11:36;;;;;;;14.87;8.10;;;10.40;99.90;;;;;;4955251;28;20222;-70
2022/04/13 00:14:02;;;;;;;13.43;7.77;;;10.30;99.90;;;;;;4955370;28;20207;-69
2022/04/13 00:16:28;;;;;;;14.37;7.67;;;10.30;99.90;;;;;;4955540;28;20211;-69
2022/04/13 00:18:53;;;;;;;11.63;7.07;;;10.30;99.90;;;;;;4954850;28;20178;-69
2022/04/13 00:21:19;;;;;;;11.57;7.53;;;10.30;99.90;;;;;;4955811;28;20199;-70
2022/04/13 00:23:45;;;;;;;13.73;7.73;;;10.20;99.90;;;;;;4955257;28;20214;-70
2022/04/13 00:26:10;;;;;;;13.67;7.67;;;10.30;99.90;;;;;;4955195;28;20215;-70
2022/04/13 00:28:36;;;;;;;11.30;6.93;;;10.20;99.90;;;;;;4954227;28;20218;-69
2022/04/13 00:31:02;;;;;;;11.40;7.33;;;10.20;99.90;;;;;;4954842;28;20230;-69
2022/04/13 00:33:27;;;;;;;11.07;7.07;;;10.10;99.90;;;;;;4955417;28;20182;-70
2022/04/13 00:35:54;;;;;;;11.53;7.20;;;10.10;99.90;;;;;;4937573;29;20203;-70
2022/04/13 00:38:21;;;;;;;12.87;7.57;;;10.00;99.90;;;;;;4954116;28;20297;-69
2022/04/13 00:40:47;;;;;;;12.43;7.63;;;10.10;99.90;;;;;;4954614;28;20708;-69
2022/04/13 00:43:12;;;;;;;10.23;6.90;;;10.00;99.90;;;;;;4954465;28;20254;-70
2022/04/13 00:45:38;;;;;;;13.13;7.27;;;10.00;99.90;;;;;;4954916;28;20179;-69
2022/04/13 00:48:06;;;;;;;15.57;7.77;;;10.10;99.90;;;;;;4953737;28;20207;-69
2022/04/13 00:50:32;;;;;;;11.40;7.63;;;10.00;99.90;;;;;;4954046;28;20688;-70
2022/04/13 00:52:59;;;;;;;12.37;7.80;;;10.00;99.90;;;;;;4954297;28;20262;-70
2022/04/13 00:55:26;;;;;;;13.33;7.73;;;9.90;99.90;;;;;;4953995;28;20211;-70
2022/04/13 00:57:55;;;;;;;13.07;7.83;;;10.00;99.90;;;;;;4953894;28;20678;-69
2022/04/13 01:00:21;;;;;;;18.63;8.93;;;10.00;99.90;;;;;;4937339;28;20206;-70
2022/04/13 01:02:47;;;;;;;11.60;7.40;;;10.00;99.90;;;;;;4954167;28;20218;-70
2022/04/13 01:05:13;;;;;;;12.67;7.47;;;10.00;99.90;;;;;;4954565;28;20214;-71
2022/04/13 01:07:39;;;;;;;13.17;8.00;;;10.00;99.90;;;;;;4954317;28;20227;-69
2022/04/13 01:10:06;;;;;;;14.43;8.73;;;9.90;99.90;;;;;;4954001;28;20175;-70
2022/04/13 01:12:34;;;;;;;14.10;7.57;;;9.90;99.90;;;;;;4956332;28;20207;-70
2022/04/13 01:15:00;;;;;;;12.17;7.73;;;9.90;99.90;;;;;;4962454;28;20258;-70
2022/04/13 01:17:25;;;;;;;16.03;7.43;;;9.80;99.90;;;;;;4960155;28;20215;-70
2022/04/13 01:19:51;;;;;;;11.90;7.93;;;9.70;99.90;;;;;;4953667;28;20294;-69
2022/04/13 01:22:22;;;;;;;10.80;7.00;;;9.80;99.90;;;;;;4954051;28;20302;-70
2022/04/13 01:24:49;;;;;;;13.67;7.73;;;9.80;99.90;;;;;;4954603;28;20580;-70
2022/04/13 01:27:15;;;;;;;11.93;7.67;;;9.70;99.90;;;;;;4953973;28;20207;-69
2022/04/13 01:29:44;;;;;;;14.17;7.77;;;9.70;99.90;;;;;;4953249;28;20215;-70
2022/04/13 01:32:12;;;;;;;16.50;8.03;;;9.70;99.90;;;;;;4953865;28;20207;-70
2022/04/13 01:34:49;;;;;;;13.40;8.00;;;9.70;99.90;;;;;;4953827;28;20273;-70
2022/04/13 01:37:15;;;;;;;13.07;7.70;;;9.60;99.90;;;;;;4953731;28;20219;-70
2022/04/13 01:39:40;;;;;;;11.27;7.40;;;9.60;99.90;;;;;;4953459;28;20660;-70
2022/04/13 01:42:06;;;;;;;15.67;8.57;;;9.60;99.90;;;;;;4953705;28;20211;-70
2022/04/13 01:44:31;;;;;;;15.90;8.67;;;9.60;99.90;;;;;;4953577;28;20586;-70
2022/04/13 01:46:57;;;;;;;13.80;7.87;;;9.50;99.90;;;;;;4953793;28;20632;-70
2022/04/13 01:49:23;;;;;;;12.57;8.33;;;9.50;99.90;;;;;;4952759;28;20226;-69
2022/04/13 01:51:48;;;;;;;13.83;7.77;;;9.50;99.90;;;;;;4953999;28;20210;-70
2022/04/13 01:54:14;;;;;;;13.13;7.43;;;9.50;99.90;;;;;;4953518;28;20210;-70
2022/04/13 01:56:39;;;;;;;16.80;7.97;;;9.50;99.90;;;;;;4953378;28;20214;-70
2022/04/13 01:59:05;;;;;;;13.17;7.33;;;9.40;99.90;;;;;;4952701;28;20218;-70
2022/04/13 02:01:31;;;;;;;13.10;8.40;;;9.40;99.90;;;;;;4952996;28;20273;-70
2022/04/13 02:03:57;;;;;;;15.57;7.97;;;9.30;99.90;;;;;;4953503;28;20226;-70
2022/04/13 02:06:22;;;;;;;14.13;8.60;;;9.20;99.90;;;;;;4953555;28;20225;-70
2022/04/13 02:08:48;;;;;;;18.67;11.87;;;9.30;99.90;;;;;;4952522;28;20233;-70
2022/04/13 02:11:14;;;;;;;21.33;12.03;;;9.20;99.90;;;;;;4953080;28;20711;-70
2022/04/13 02:13:39;;;;;;;21.33;12.03;;;9.20;99.90;;;;;;4953213;28;20218;-69
2022/04/13 02:16:06;;;;;;;23.00;13.50;;;9.20;99.90;;;;;;4953179;28;20211;-70
2022/04/13 02:18:31;;;;;;;29.73;15.80;;;9.10;99.90;;;;;;4945713;28;20648;-70
2022/04/13 02:20:57;;;;;;;20.30;13.30;;;9.10;99.90;;;;;;4951364;28;20327;-70
2022/04/13 02:23:23;;;;;;;20.33;10.73;;;9.10;99.90;;;;;;4952592;28;20247;-69
2022/04/13 02:25:48;;;;;;;19.10;10.63;;;9.10;99.90;;;;;;4952658;28;20230;-70
2022/04/13 02:28:14;;;;;;;20.77;10.77;;;9.10;99.90;;;;;;4952111;28;20627;-69
2022/04/13 02:30:39;;;;;;;14.53;8.77;;;9.10;99.90;;;;;;4953147;28;20197;-70
2022/04/13 02:33:05;;;;;;;14.43;8.83;;;9.10;99.90;;;;;;4952946;28;20707;-70
2022/04/13 02:35:30;;;;;;;12.23;8.17;;;9.00;99.90;;;;;;4952714;28;20207;-70
2022/04/13 02:37:56;;;;;;;15.30;8.47;;;9.00;99.90;;;;;;4952625;28;20217;-70
2022/04/13 02:40:22;;;;;;;13.17;8.30;;;8.90;99.90;;;;;;4952096;28;20819;-70
2022/04/13 02:42:47;;;;;;;12.40;8.00;;;8.90;99.90;;;;;;4953148;28;20286;-70
2022/04/13 02:45:13;;;;;;;11.17;7.67;;;8.90;99.90;;;;;;4952875;28;20715;-70
2022/04/13 02:47:38;;;;;;;17.53;8.67;;;8.80;99.90;;;;;;4952516;28;20202;-69
2022/04/13 02:50:08;;;;;;;17.27;9.07;;;8.80;99.90;;;;;;4951030;28;20207;-69
2022/04/13 02:52:34;;;;;;;15.83;8.17;;;8.70;99.90;;;;;;4952282;28;20289;-69
2022/04/13 02:55:00;;;;;;;11.67;7.33;;;8.70;99.90;;;;;;4952661;28;20194;-70
2022/04/13 02:57:26;;;;;;;11.60;7.67;;;8.70;99.90;;;;;;4952822;28;20206;-70
2022/04/13 02:59:51;;;;;;;14.70;7.93;;;8.70;99.90;;;;;;4951963;28;20676;-70
2022/04/13 03:02:18;;;;;;;13.63;8.03;;;8.60;99.90;;;;;;4952338;28;20234;-70
2022/04/13 03:04:47;;;;;;;11.53;8.07;;;8.60;99.90;;;;;;4952421;28;20214;-69
2022/04/13 03:07:17;;;;;;;14.13;8.10;;;8.70;99.90;;;;;;4952464;28;20225;-70
2022/04/13 03:09:43;;;;;;;15.53;8.47;;;8.60;99.90;;;;;;4952208;28;20234;-70
2022/04/13 03:12:10;;;;;;;12.13;7.63;;;8.60;99.90;;;;;;4952544;28;20708;-70
2022/04/13 03:14:37;;;;;;;15.23;8.87;;;8.60;99.90;;;;;;4952273;28;20215;-70
2022/04/13 03:17:03;;;;;;;13.40;8.13;;;8.60;99.90;;;;;;4952419;28;20258;-70
2022/04/13 03:19:29;;;;;;;13.23;7.90;;;8.70;99.90;;;;;;4952114;28;20621;-69
2022/04/13 03:21:54;;;;;;;11.53;8.17;;;8.60;99.90;;;;;;4956170;28;20249;-69
2022/04/13 03:24:24;;;;;;;13.67;7.93;;;8.60;99.90;;;;;;4956470;28;20747;-69
2022/04/13 03:26:50;;;;;;;14.43;8.03;;;8.60;99.90;;;;;;4956116;28;20203;-69
2022/04/13 03:29:16;;;;;;;13.90;8.23;;;8.60;99.90;;;;;;4955370;28;20207;-70
2022/04/13 03:31:42;;;;;;;13.73;8.37;;;8.50;99.90;;;;;;4955797;28;20225;-69
2022/04/13 03:34:07;;;;;;;14.80;9.00;;;8.50;99.90;;;;;;4956015;28;20183;-70
2022/04/13 03:36:33;;;;;;;15.50;8.23;;;8.50;99.90;;;;;;4956247;28;20183;-70
2022/04/13 03:38:58;;;;;;;15.70;8.43;;;8.50;99.90;;;;;;4955154;28;20214;-70
2022/04/13 03:41:24;;;;;;;10.40;7.57;;;8.50;99.90;;;;;;4955607;28;20218;-69
2022/04/13 03:43:49;;;;;;;13.80;8.20;;;8.50;99.90;;;;;;4955804;28;20222;-70
2022/04/13 03:46:15;;;;;;;14.20;8.50;;;8.50;99.90;;;;;;4955859;28;20215;-70
2022/04/13 03:48:41;;;;;;;12.20;8.10;;;8.50;99.90;;;;;;4955379;28;20275;-70
2022/04/13 03:51:06;;;;;;;13.53;7.93;;;8.40;99.90;;;;;;4955212;28;20223;-70
2022/04/13 03:53:32;;;;;;;16.03;8.80;;;8.40;99.90;;;;;;4955478;28;20638;-69
2022/04/13 03:55:57;;;;;;;15.43;8.60;;;8.30;99.90;;;;;;4955809;28;20211;-69
2022/04/13 03:58:22;;;;;;;16.67;8.33;;;8.30;99.90;;;;;;4954744;28;20207;-69
2022/04/13 04:00:48;;;;;;;13.47;8.17;;;8.20;99.90;;;;;;4955664;28;20191;-70
2022/04/13 04:03:14;;;;;;;13.80;8.53;;;8.20;99.90;;;;;;4956652;28;20234;-70
2022/04/13 04:05:39;;;;;;;12.73;8.23;;;8.20;99.90;;;;;;4955279;28;20257;-70
2022/04/13 04:08:05;;;;;;;15.60;8.53;;;8.20;99.90;;;;;;4954709;28;20207;-70
2022/04/13 04:10:30;;;;;;;14.03;8.47;;;8.30;99.90;;;;;;4954989;28;20214;-70
2022/04/13 04:12:56;;;;;;;11.50;7.97;;;8.30;99.90;;;;;;4955378;28;20605;-70
2022/04/13 04:15:21;;;;;;;12.03;8.23;;;8.20;99.90;;;;;;4955624;28;20553;-69
2022/04/13 04:17:47;;;;;;;12.67;8.20;;;8.30;99.90;;;;;;4954871;28;20706;-70
2022/04/13 04:20:12;;;;;;;14.87;8.50;;;8.30;99.90;;;;;;4951699;28;20210;-71
2022/04/13 04:22:38;;;;;;;17.03;8.70;;;8.30;99.90;;;;;;4954790;28;20218;-70
2022/04/13 04:25:06;;;;;;;13.57;8.20;;;8.30;99.90;;;;;;4955322;28;20652;-70
2022/04/13 04:27:32;;;;;;;18.13;9.53;;;8.40;99.90;;;;;;4955293;28;20644;-70
2022/04/13 04:29:57;;;;;;;11.27;7.90;;;8.30;99.90;;;;;;4954386;28;20226;-70
2022/04/13 04:32:24;;;;;;;11.70;8.20;;;8.40;99.90;;;;;;4954784;28;20215;-70
2022/04/13 04:34:49;;;;;;;12.97;8.03;;;8.50;99.90;;;;;;4953157;28;20208;-70
2022/04/13 04:37:15;;;;;;;13.87;8.47;;;8.50;99.90;;;;;;4954826;28;20218;-70
2022/04/13 04:39:40;;;;;;;15.37;8.33;;;8.40;99.90;;;;;;4954611;28;20249;-71
2022/04/13 04:42:06;;;;;;;15.60;8.27;;;8.50;99.90;;;;;;4954956;28;20211;-70
2022/04/13 04:44:31;;;;;;;13.20;8.17;;;8.60;99.90;;;;;;4954519;28;20227;-70
2022/04/13 04:46:57;;;;;;;16.17;7.93;;;8.60;99.90;;;;;;4954899;28;20723;-71
2022/04/13 04:49:22;;;;;;;12.63;7.97;;;8.80;99.90;;;;;;4953842;28;20243;-70
2022/04/13 04:51:48;;;;;;;13.80;8.60;;;8.80;99.90;;;;;;4955103;28;20219;-71
2022/04/13 04:54:13;;;;;;;17.63;8.67;;;8.90;99.90;;;;;;4954544;28;20354;-71
2022/04/13 04:56:39;;;;;;;14.93;9.00;;;9.00;99.90;;;;;;4954532;28;20281;-71
2022/04/13 04:59:04;;;;;;;14.50;8.33;;;9.20;99.90;;;;;;4953999;28;20235;-71
2022/04/13 05:01:30;;;;;;;12.87;8.43;;;9.20;99.90;;;;;;4954095;28;20707;-71
2022/04/13 05:03:56;;;;;;;12.70;8.30;;;9.20;99.90;;;;;;4958572;28;20702;-71
2022/04/13 05:06:23;;;;;;;14.20;8.27;;;9.30;99.90;;;;;;4959585;28;20187;-70
2022/04/13 05:08:51;;;;;;;14.53;8.43;;;9.60;99.90;;;;;;4955028;28;20735;-70
2022/04/13 05:11:17;;;;;;;15.93;9.47;;;9.60;99.90;;;;;;4954404;28;20215;-70
2022/04/13 05:13:45;;;;;;;13.33;8.67;;;9.90;99.90;;;;;;4954110;28;20211;-70
2022/04/13 05:16:15;;;;;;;13.53;8.90;;;10.10;99.90;;;;;;4954345;28;20218;-70
2022/04/13 05:18:41;;;;;;;13.63;8.20;;;10.20;99.90;;;;;;4953871;28;21800;-70
2022/04/13 05:21:07;;;;;;;13.23;8.80;;;10.20;99.90;;;;;;4953964;28;20215;-71
2022/04/13 05:23:32;;;;;;;18.47;9.30;;;10.80;99.90;;;;;;4953841;28;20593;-70
2022/04/13 05:25:58;;;;;;;14.83;9.03;;;11.30;99.90;;;;;;4954138;28;20215;-69
2022/04/13 05:28:23;;;;;;;14.37;8.97;;;11.30;99.90;;;;;;4953092;28;20219;-71
2022/04/13 05:30:49;;;;;;;15.83;8.90;;;11.40;99.90;;;;;;4954500;28;20674;-70
2022/04/13 05:33:14;;;;;;;13.67;8.37;;;11.40;99.90;;;;;;4953998;28;20247;-70
2022/04/13 05:35:40;;;;;;;15.47;9.10;;;11.50;99.90;;;;;;4953542;28;20230;-70
2022/04/13 05:38:06;;;;;;;15.80;9.37;;;11.80;99.90;;;;;;4953278;28;20233;-70
2022/04/13 05:40:32;;;;;;;12.63;8.17;;;12.30;99.90;;;;;;4953692;28;20218;-70
2022/04/13 05:42:58;;;;;;;18.00;10.03;;;12.90;99.90;;;;;;4953120;28;20207;-70
2022/04/13 05:45:24;;;;;;;15.70;9.63;;;12.90;99.90;;;;;;4954135;28;20179;-70
2022/04/13 05:47:50;;;;;;;15.13;8.97;;;12.90;99.90;;;;;;4953742;28;20608;-70
2022/04/13 05:50:15;;;;;;;16.90;8.43;;;12.80;99.90;;;;;;4953151;28;20294;-71
2022/04/13 05:52:43;;;;;;;14.90;8.70;;;13.10;99.90;;;;;;4953467;28;20592;-71
2022/04/13 05:55:09;;;;;;;13.80;8.77;;;13.20;99.90;;;;;;4953560;28;20274;-71
2022/04/13 05:57:34;;;;;;;16.97;9.60;;;13.50;99.90;;;;;;4953972;28;20183;-71
2022/04/13 06:00:00;;;;;;;14.87;9.20;;;13.70;99.90;;;;;;4952955;28;20202;-70
2022/04/13 06:02:25;;;;;;;17.80;9.17;;;14.00;99.90;;;;;;4952524;28;20605;-70
2022/04/13 06:04:51;;;;;;;15.07;8.50;;;14.10;99.90;;;;;;4953117;28;20270;-71
2022/04/13 06:07:17;;;;;;;14.27;8.87;;;14.60;99.90;;;;;;4953392;28;20294;-70
2022/04/13 06:09:42;;;;;;;20.07;9.63;;;14.90;99.90;;;;;;4952953;28;20180;-71
2022/04/13 06:12:09;;;;;;;14.32;9.18;;;15.40;99.90;;;;;;4953096;28;20226;-70
2022/04/13 06:14:35;;;;;;;13.00;8.57;;;15.70;99.90;;;;;;4953345;28;20214;-71
2022/04/13 06:17:00;;;;;;;16.17;9.40;;;15.90;99.90;;;;;;4953371;28;20802;-71
2022/04/13 06:19:26;;;;;;;15.73;9.43;;;15.30;99.90;;;;;;4952105;28;20203;-71
2022/04/13 06:21:51;;;;;;;13.27;8.93;;;15.20;99.90;;;;;;4952932;28;20246;-70
2022/04/13 06:24:17;;;;;;;16.60;9.07;;;15.70;99.90;;;;;;4953553;28;20218;-70
2022/04/13 06:26:42;;;;;;;12.73;7.80;;;16.00;99.90;;;;;;4953404;28;20270;-70
2022/04/13 06:29:08;;;;;;;19.92;9.27;;;15.50;99.90;;;;;;4952900;28;20215;-70
2022/04/13 06:31:34;;;;;;;19.15;9.45;;;14.90;99.90;;;;;;4952978;28;20219;-70
2022/04/13 06:33:59;;;;;;;16.15;10.13;;;15.90;99.90;;;;;;4952990;28;20182;-70
2022/04/13 06:36:25;;;;;;;14.52;9.07;;;15.90;99.90;;;;;;4952773;28;20269;-70
2022/04/13 06:38:50;;;;;;;14.90;9.35;;;16.30;99.90;;;;;;4951905;28;20242;-69
2022/04/13 06:41:16;;;;;;;13.70;9.05;;;16.40;99.90;;;;;;4952639;28;20227;-70
2022/04/13 06:43:41;;;;;;;13.73;9.45;;;16.60;99.90;;;;;;4952117;28;20310;-69
2022/04/13 06:46:07;;;;;;;18.45;9.50;;;16.80;99.70;;;;;;4952559;28;20175;-69
2022/04/13 06:48:33;;;;;;;15.88;8.32;;;16.10;99.90;;;;;;4952999;28;20325;-70
2022/04/13 06:51:00;;;;;;;15.90;9.23;;;16.20;99.90;;;;;;4952327;28;20219;-70
2022/04/13 06:53:26;;;;;;;16.55;9.63;;;17.00;99.70;;;;;;4952811;28;20302;-70
2022/04/13 06:55:52;;;;;;;17.02;9.85;;;16.80;98.90;;;;;;4955850;28;20227;-70
2022/04/13 06:58:19;;;;;;;17.35;10.50;;;17.50;98.10;;;;;;4956052;28;20706;-70
2022/04/13 07:00:45;;;;;;;14.60;8.65;;;17.90;96.90;;;;;;4956868;28;20194;-71
2022/04/13 07:03:10;;;;;;;14.75;9.52;;;17.20;97.60;;;;;;4956018;28;20257;-70
2022/04/13 07:05:37;;;;;;;19.40;9.98;;;17.90;95.90;;;;;;4956435;28;20685;-70
2022/04/13 07:08:03;;;;;;;15.93;9.43;;;17.50;96.70;;;;;;4955396;28;20289;-69
2022/04/13 07:10:30;;;;;;;13.88;9.45;;;18.00;96.50;;;;;;4955927;28;20688;-70
2022/04/13 07:12:56;;;;;;;13.27;8.43;;;18.20;95.70;;;;;;4956685;28;20193;-70
2022/04/13 07:15:22;;;;;;;14.75;8.73;;;18.80;94.60;;;;;;4956517;28;20199;-69
2022/04/13 07:17:47;;;;;;;14.68;9.00;;;18.20;95.00;;;;;;4955909;28;20298;-70
2022/04/13 07:20:14;;;;;;;13.05;8.70;;;18.40;94.90;;;;;;4953240;28;20249;-70
2022/04/13 07:22:46;;;;;;;16.70;9.60;;;18.90;93.90;;;;;;4954792;28;20610;-70
2022/04/13 07:25:14;;;;;;;13.30;8.85;;;18.30;93.70;;;;;;4956311;28;20221;-70
2022/04/13 07:27:39;;;;;;;15.43;8.77;;;18.70;93.50;;;;;;4955767;28;20199;-70
2022/04/13 07:30:06;;;;;;;15.35;9.85;;;19.60;92.50;;;;;;4955089;28;20214;-70
2022/04/13 07:32:31;;;;;;;13.68;9.10;;;20.10;91.90;;;;;;4955461;28;20206;-70
2022/04/13 07:35:00;;;;;;;13.48;8.85;;;19.60;91.20;;;;;;4955977;28;20349;-70
2022/04/13 07:37:26;;;;;;;15.48;8.95;;;18.60;92.10;;;;;;4955901;28;20206;-71
2022/04/13 07:39:52;;;;;;;15.48;8.75;;;18.40;92.80;;;;;;4955153;28;20318;-70
2022/04/13 07:42:27;;;;;;;13.85;8.63;;;18.30;93.50;;;;;;4954026;28;20265;-70
2022/04/13 07:44:54;;;;;;;15.98;8.95;;;18.70;92.80;;;;;;4955799;28;20202;-70
2022/04/13 07:47:20;;;;;;;15.68;8.88;;;18.90;92.90;;;;;;4955663;28;20215;-70
2022/04/13 07:49:46;;;;;;;14.77;8.85;;;19.10;92.20;;;;;;4947643;28;20214;-70
2022/04/13 07:52:12;;;;;;;19.35;9.23;;;19.20;91.90;;;;;;4951387;28;20237;-70
2022/04/13 07:54:38;;;;;;;16.05;8.77;;;18.20;93.10;;;;;;4956309;28;20667;-70
2022/04/13 07:57:03;;;;;;;14.73;9.07;;;18.50;93.00;;;;;;4955898;28;20775;-69
2022/04/13 07:59:29;;;;;;;14.30;9.40;;;18.60;92.60;;;;;;4954635;28;20226;-69
2022/04/13 08:01:55;;;;;;;17.48;9.23;;;18.50;92.70;;;;;;4955280;28;20215;-70
2022/04/13 08:04:20;;;;;;;15.45;9.15;;;18.50;92.30;;;;;;4954868;28;20223;-70
2022/04/13 08:06:46;;;;;;;15.65;9.13;;;18.50;92.70;;;;;;4952811;28;20191;-71
2022/04/13 08:09:12;;;;;;;14.45;9.10;;;18.90;92.30;;;;;;4954844;28;20243;-70
2022/04/13 08:11:37;;;;;;;22.52;14.52;;;19.40;92.30;;;;;;4955278;28;20250;-71
2022/04/13 08:14:03;;;;;;;21.75;14.57;;;19.50;91.80;;;;;;4955315;28;20211;-70
2022/04/13 08:16:29;;;;;;;16.08;9.85;;;19.00;92.00;;;;;;4955397;28;20238;-70
2022/04/13 08:18:54;;;;;;;17.73;9.65;;;19.50;91.60;;;;;;4954527;28;20183;-70
2022/04/13 08:21:19;;;;;;;14.07;9.02;;;19.40;91.50;;;;;;4938590;29;20202;-70
2022/04/13 08:23:45;;;;;;;15.70;8.73;;;19.50;91.40;;;;;;4955214;28;20211;-70
2022/04/13 08:26:10;;;;;;;16.70;9.30;;;19.40;91.20;;;;;;4955355;28;20203;-70
2022/04/13 08:28:36;;;;;;;13.10;8.57;;;19.50;91.20;;;;;;4954086;28;20221;-70
2022/04/13 08:31:04;;;;;;;14.85;9.18;;;19.80;90.80;;;;;;4954948;28;20199;-71
2022/04/13 08:33:30;;;;;;;19.55;9.95;;;20.10;90.30;;;;;;4955508;28;20279;-70
2022/04/13 08:35:55;;;;;;;15.90;9.65;;;20.00;90.40;;;;;;4954705;28;20243;-69
2022/04/13 08:38:21;;;;;;;15.32;9.27;;;19.30;90.90;;;;;;4954442;28;20218;-69
2022/04/13 08:40:55;;;;;;;15.05;9.10;;;19.20;91.10;;;;;;4955367;28;20230;-69
2022/04/13 08:43:59;;;;;;;18.83;9.25;;;19.40;92.00;;;;;;4955214;28;20233;-68
2022/04/13 08:46:26;;;;;;;15.10;9.32;;;19.60;90.90;;;;;;4953254;28;20214;-70
2022/04/13 08:48:56;;;;;;;20.08;9.15;;;19.90;91.00;;;;;;4954689;28;20230;-73
2022/04/13 08:51:24;;;;;;;14.93;8.75;;;19.50;90.90;;;;;;4961846;28;20637;-71
2022/04/13 08:54:10;;;;;;;17.13;9.10;;;19.10;91.10;;;;;;4959645;28;20692;-71
2022/04/13 08:56:38;;;;;;;15.45;9.85;;;19.10;91.30;;;;;;4942409;28;20635;-68
2022/04/13 08:59:34;;;;;;;14.13;8.90;;;18.80;91.80;;;;;;4960857;28;20210;-69
2022/04/13 09:02:33;;;;;;;14.18;9.02;;;19.40;91.40;;;;;;4966977;28;20334;-70
2022/04/13 09:05:01;;;;;;;15.25;9.48;;;19.60;91.10;;;;;;4957376;28;20213;-69
2022/04/13 09:07:32;;;;;;;17.35;10.05;;;19.60;90.70;;;;;;4955470;28;20696;-73
2022/04/13 09:10:00;;;;;;;18.23;11.02;;;20.10;90.60;;;;;;4953901;28;20239;-70
2022/04/13 09:12:30;;;;;;;19.83;9.68;;;20.30;90.10;;;;;;4955778;28;20199;-69
2022/04/13 09:14:57;;;;;;;15.35;9.07;;;20.50;89.50;;;;;;4954799;28;20210;-70
2022/04/13 09:17:27;;;;;;;18.10;10.77;;;20.60;89.20;;;;;;4954053;28;20294;-70
2022/04/13 09:19:53;;;;;;;18.40;10.13;;;20.10;89.90;;;;;;4954452;28;20213;-70
2022/04/13 09:22:21;;;;;;;18.00;9.95;;;20.10;90.60;;;;;;4955175;28;20684;-69
2022/04/13 09:24:47;;;;;;;18.05;9.15;;;19.30;91.40;;;;;;4947547;28;20206;-69
2022/04/13 09:27:14;;;;;;;18.05;8.38;;;19.00;91.70;;;;;;4954630;28;20226;-69
2022/04/13 09:29:40;;;;;;;14.63;9.00;;;19.50;91.90;;;;;;4953859;28;20211;-73
2022/04/13 09:32:07;;;;;;;17.48;9.48;;;19.30;91.60;;;;;;4954150;28;20234;-72
2022/04/13 09:34:32;;;;;;;13.45;9.55;;;19.30;91.70;;;;;;4953779;28;20211;-74
2022/04/13 09:36:58;;;;;;;14.27;9.35;;;19.20;91.40;;;;;;4953674;28;20548;-74
2022/04/13 09:39:23;;;;;;;17.17;8.88;;;19.20;91.30;;;;;;4953367;28;20269;-72
2022/04/13 09:41:50;;;;;;;19.23;10.45;;;19.20;91.60;;;;;;4953151;28;20215;-73
2022/04/13 09:44:18;;;;;;;14.00;9.63;;;19.30;92.00;;;;;;4953402;28;20219;-72
2022/04/13 09:46:44;;;;;;;15.60;9.50;;;19.30;91.80;;;;;;4953039;28;20219;-72
2022/04/13 09:49:13;;;;;;;17.15;10.43;;;19.10;91.90;;;;;;4952839;28;20188;-70
2022/04/13 09:51:41;;;;;;;14.38;9.23;;;19.00;92.20;;;;;;4953925;28;20205;-70
2022/04/13 09:54:11;;;;;;;16.67;9.60;;;19.50;91.90;;;;;;4953350;28;20223;-70
2022/04/13 09:56:38;;;;;;;15.40;9.65;;;19.20;91.80;;;;;;4953148;28;20258;-68
2022/04/13 09:59:05;;;;;;;17.13;9.73;;;19.60;91.80;;;;;;4952903;28;20395;-70
2022/04/13 10:01:35;;;;;;;16.25;9.32;;;19.20;91.80;;;;;;4954384;28;20227;-71
2022/04/13 10:04:03;;;;;;;17.00;9.40;;;19.00;92.40;;;;;;4953253;28;20287;-70
2022/04/13 10:06:30;;;;;;;14.95;9.43;;;19.10;92.50;;;;;;4953460;28;20585;-70
2022/04/13 10:09:14;;;;;;;19.77;11.38;;;19.60;92.40;;;;;;4952647;28;20736;-69
2022/04/13 10:11:58;;;;;;;15.35;9.15;;;19.40;92.20;;;;;;4953424;28;20278;-70
2022/04/13 10:14:23;;;;;;;15.60;8.90;;;19.60;92.20;;;;;;4953520;28;20228;-70
2022/04/13 10:16:51;;;;;;;16.27;9.43;;;19.80;91.50;;;;;;4953325;28;20758;-70
2022/04/13 10:19:20;;;;;;;14.23;9.38;;;19.50;91.80;;;;;;4952728;28;20203;-70
2022/04/13 10:21:47;;;;;;;15.35;9.35;;;19.60;91.90;;;;;;4953781;28;20206;-70
2022/04/13 10:24:21;;;;;;;15.65;9.20;;;19.80;91.70;;;;;;4953295;28;20724;-69
2022/04/13 10:27:03;;;;;;;14.15;8.98;;;19.70;92.00;;;;;;4953232;28;20213;-70
2022/04/13 10:29:37;;;;;;;19.80;9.57;;;19.60;91.50;;;;;;4952153;28;20297;-70
2022/04/13 10:32:24;;;;;;;12.35;7.60;;;19.50;91.80;;;;;;4953122;28;20632;-70
2022/04/13 10:34:52;;;;;;;16.45;8.80;;;19.70;91.80;;;;;;4945515;28;20217;-70
2022/04/13 10:37:20;;;;;;;16.13;9.00;;;20.10;91.40;;;;;;4953335;28;20211;-70
2022/04/13 10:39:47;;;;;;;15.52;8.98;;;20.30;91.30;;;;;;4944840;28;20167;-70
2022/04/13 10:42:15;;;;;;;14.82;8.27;;;20.40;91.50;;;;;;4953423;28;20219;-70
2022/04/13 10:44:52;;;;;;;16.75;9.02;;;19.80;91.60;;;;;;4953061;28;20711;-70
2022/04/13 10:47:24;;;;;;;13.10;7.88;;;20.00;91.50;;;;;;4953379;28;20218;-70
2022/04/13 10:49:55;;;;;;;18.08;10.05;;;20.20;91.10;;;;;;4945374;28;20211;-70
2022/04/13 10:52:28;;;;;;;16.13;10.25;;;20.30;91.10;;;;;;4953033;28;20223;-70
2022/04/13 10:55:11;;;;;;;14.77;9.10;;;20.30;91.20;;;;;;4953429;28;20167;-70
2022/04/13 10:57:49;;;;;;;14.07;8.13;;;20.10;90.80;;;;;;4953405;28;20519;-71
2022/04/13 11:00:18;;;;;;;15.35;8.60;;;20.10;90.60;;;;;;4952668;28;20233;-70
2022/04/13 11:03:04;;;;;;;13.13;7.65;;;20.10;90.60;;;;;;4952841;28;20215;-71
2022/04/13 11:05:30;;;;;;;13.95;7.80;;;20.50;90.30;;;;;;4952780;28;20211;-70
2022/04/13 11:08:12;;;;;;;12.65;7.40;;;20.20;90.30;;;;;;4951689;28;20246;-72
2022/04/13 11:10:38;;;;;;;12.27;7.68;;;20.40;90.80;;;;;;4939743;28;20217;-74
2022/04/13 11:13:04;;;;;;;12.80;7.93;;;20.30;90.60;;;;;;4947100;28;20813;-72
2022/04/13 11:15:44;;;;;;;16.15;7.60;;;20.20;90.80;;;;;;4952567;28;20187;-76
2022/04/13 11:18:12;;;;;;;12.88;7.82;;;20.20;91.20;;;;;;4952325;28;20218;-73
2022/04/13 11:20:57;;;;;;;12.30;7.82;;;20.50;91.10;;;;;;4952259;28;20214;-73
2022/04/13 11:23:23;;;;;;;12.88;7.78;;;20.40;91.00;;;;;;4953771;28;20230;-74
2022/04/13 11:25:58;;;;;;;12.63;7.70;;;20.60;91.20;;;;;;4952436;28;20993;-74
2022/04/13 11:28:26;;;;;;;12.25;7.68;;;20.30;90.70;;;;;;4951312;28;20222;-74
2022/04/13 11:31:17;;;;;;;11.80;7.28;;;20.40;90.70;;;;;;4952166;28;20751;-72
2022/04/13 11:33:52;;;;;;;11.73;7.13;;;20.40;91.00;;;;;;4952526;28;20191;-72
2022/04/13 11:36:19;;;;;;;14.23;7.90;;;20.80;91.00;;;;;;4950468;28;20226;-74
2022/04/13 11:38:51;;;;;;;16.88;7.32;;;21.00;90.40;;;;;;4950271;28;20203;-71
2022/04/13 11:41:18;;;;;;;11.70;7.70;;;20.70;90.40;;;;;;4954607;28;20301;-71
2022/04/13 11:43:45;;;;;;;14.10;7.43;;;20.70;90.70;;;;;;4955230;28;20222;-72
2022/04/13 11:46:32;;;;;;;13.43;7.18;;;21.00;90.40;;;;;;4955524;28;20242;-72
2022/04/13 11:48:58;;;;;;;12.88;7.78;;;21.20;90.50;;;;;;4955361;28;20183;-72
2022/04/13 11:51:30;;;;;;;14.85;7.75;;;20.80;90.80;;;;;;4956813;28;20203;-72
2022/04/13 11:54:08;;;;;;;14.27;7.95;;;20.60;91.40;;;;;;4963112;28;20211;-72
2022/04/13 11:56:50;;;;;;;13.90;7.18;;;20.50;90.90;;;;;;4956219;28;20203;-72
2022/04/13 11:59:16;;;;;;;13.85;7.28;;;20.30;91.20;;;;;;4955416;28;20219;-72
2022/04/13 12:01:55;;;;;;;13.23;7.13;;;20.20;91.60;;;;;;4955614;28;20227;-72
2022/04/13 12:04:24;;;;;;;13.52;6.50;;;20.20;91.50;;;;;;4955939;28;20231;-73
2022/04/13 12:06:50;;;;;;;10.90;7.07;;;20.30;91.40;;;;;;4956066;28;20181;-74
2022/04/13 12:09:16;;;;;;;11.82;7.28;;;20.30;91.50;;;;;;4954990;28;20219;-73
2022/04/13 12:11:47;;;;;;;11.18;6.80;;;20.40;91.50;;;;;;4955706;28;20289;-74
2022/04/13 12:14:27;;;;;;;10.20;6.30;;;20.70;90.80;;;;;;4955884;28;20219;-73
2022/04/13 12:16:57;;;;;;;9.82;5.88;;;20.80;90.20;;;;;;4955530;28;20273;-73
2022/04/13 12:19:22;;;;;;;11.60;6.70;;;21.00;89.90;;;;;;4954721;28;20644;-72
2022/04/13 12:21:48;;;;;;;11.73;6.18;;;21.30;90.60;;;;;;4955808;28;20286;-73
2022/04/13 12:24:13;;;;;;;11.63;6.57;;;21.50;90.40;;;;;;4955197;28;20253;-73
2022/04/13 12:26:44;;;;;;;10.88;5.38;;;21.30;88.50;;;;;;4955356;28;20203;-73
2022/04/13 12:29:14;;;;;;;10.07;6.63;;;21.40;88.50;;;;;;4954573;28;20215;-73
2022/04/13 12:31:49;;;;;;;7.70;5.10;;;21.20;86.10;;;;;;4955200;28;20223;-74
2022/04/13 12:34:16;;;;;;;10.52;6.15;;;21.30;86.20;;;;;;4955268;28;20234;-73
2022/04/13 12:36:42;;;;;;;8.90;6.13;;;21.30;85.90;;;;;;4955582;28;20328;-73
2022/04/13 12:39:12;;;;;;;12.27;6.07;;;21.10;87.50;;;;;;4954736;28;20211;-73
2022/04/13 12:41:38;;;;;;;8.32;5.90;;;21.00;87.90;;;;;;4954808;28;20219;-74
2022/04/13 12:44:04;;;;;;;10.32;6.43;;;21.10;88.40;;;;;;4937773;29;20730;-73